Time;durP1;ratioP1;P1;durP2;ratioP2;P2;SDS_P1;SDS_P2;PMS_P1;PMS_P2;Temp;Humidity;BMP_temperature;BMP_pressure;BME280_temperature;BME280_humidity;BME280_pressure;Samples;Min_cycle;Max_cycle;Signal;HPM_P1;HPM_P2
2021/01/22 00:00:09;;;;;;;4.80;3.20;;;;;;;8.84;64.78;98831.22;689283;28;36972;-59
2021/01/22 00:00:30;;;;;;;3.50;3.20;;;;;;;8.83;64.82;98828.75;688461;28;46469;-56
2021/01/22 00:00:52;;;;;;;3.70;3.40;;;;;;;8.81;64.58;98820.06;689501;28;21567;-53
2021/01/22 00:01:14;;;;;;;4.65;3.55;;;;;;;8.81;64.64;98830.84;685852;28;46381;-53
2021/01/22 00:01:36;;;;;;;4.13;3.25;;;;;;;8.80;64.55;98832.69;685707;28;44669;-53
2021/01/22 00:01:59;;;;;;;3.58;3.05;;;;;;;8.85;64.66;98848.19;686842;28;21480;-56
2021/01/22 00:02:21;;;;;;;4.35;3.38;;;;;;;8.89;64.73;98835.16;684273;28;93130;-56
2021/01/22 00:02:42;;;;;;;5.75;3.50;;;;;;;8.89;64.50;98830.59;686489;28;23472;-58
2021/01/22 00:03:04;;;;;;;5.10;3.30;;;;;;;8.86;64.17;98820.25;686672;28;46292;-56
2021/01/22 00:03:25;;;;;;;3.60;3.13;;;;;;;8.84;64.16;98820.47;688719;28;22370;-53
2021/01/22 00:03:47;;;;;;;3.80;3.28;;;;;;;8.85;64.33;98826.66;689528;28;22404;-62
2021/01/22 00:04:08;;;;;;;4.18;3.30;;;;;;;8.83;64.42;98820.66;688746;28;44350;-54
2021/01/22 00:04:29;;;;;;;5.18;3.55;;;;;;;8.82;64.26;98825.25;688774;28;22472;-53
2021/01/22 00:04:50;;;;;;;5.53;3.65;;;;;;;8.82;64.31;98822.53;688805;28;46245;-56
2021/01/22 00:05:12;;;;;;;4.82;3.60;;;;;;;8.83;64.34;98834.94;689634;28;23490;-51
2021/01/22 00:05:34;;;;;;;3.67;3.38;;;;;;;8.84;64.27;98825.84;688549;28;46390;-53
2021/01/22 00:05:55;;;;;;;3.75;3.35;;;;;;;8.84;64.34;98825.84;689516;28;22490;-54
2021/01/22 00:06:16;;;;;;;4.18;3.72;;;;;;;8.84;64.32;98825.03;688713;28;45257;-57
2021/01/22 00:06:38;;;;;;;3.72;3.40;;;;;;;8.87;64.24;98823.75;689197;28;22397;-58
2021/01/22 00:06:59;;;;;;;3.70;3.40;;;;;;;8.87;64.16;98819.22;689070;28;23432;-57
2021/01/22 00:07:20;;;;;;;3.58;3.28;;;;;;;8.86;64.28;98816.75;688961;28;43737;-57
2021/01/22 00:07:42;;;;;;;3.33;3.13;;;;;;;8.86;64.03;98814.03;689152;28;22378;-53
2021/01/22 00:08:03;;;;;;;3.83;3.53;;;;;;;8.84;63.98;98825.84;689648;28;22493;-53
2021/01/22 00:08:25;;;;;;;4.13;3.67;;;;;;;8.84;64.21;98809.69;685413;28;46426;-54
2021/01/22 00:08:46;;;;;;;3.80;3.50;;;;;;;8.84;64.15;98817.75;686495;28;23534;-56
2021/01/22 00:09:08;;;;;;;4.07;3.53;;;;;;;8.84;64.01;98811.56;686100;28;37634;-57
2021/01/22 00:09:29;;;;;;;3.83;3.33;;;;;;;8.84;63.80;98812.38;686688;28;22491;-57
2021/01/22 00:09:50;;;;;;;3.45;3.15;;;;;;;8.86;63.79;98822.13;686929;28;21149;-56
2021/01/22 00:10:12;;;;;;;3.97;3.65;;;;;;;8.85;64.03;98821.28;686651;28;45379;-55
2021/01/22 00:10:34;;;;;;;3.95;3.58;;;;;;;8.88;63.81;98817.34;688931;28;41287;-55
2021/01/22 00:10:55;;;;;;;4.47;3.57;;;;;;;8.88;63.92;98817.34;690152;28;898;-50
2021/01/22 00:11:17;;;;;;;3.95;3.55;;;;;;;8.86;63.79;98806.78;688824;28;43637;-56
2021/01/22 00:11:38;;;;;;;3.97;3.60;;;;;;;8.86;63.92;98804.09;690045;28;11413;-53
2021/01/22 00:11:59;;;;;;;3.85;3.55;;;;;;;8.84;63.77;98806.19;689760;28;23554;-56
2021/01/22 00:12:21;;;;;;;3.72;3.42;;;;;;;8.83;63.71;98818.78;688858;28;47359;-54
2021/01/22 00:12:42;;;;;;;3.65;3.30;;;;;;;8.82;63.67;98827.09;689693;28;22273;-51
2021/01/22 00:13:04;;;;;;;4.03;3.63;;;;;;;8.82;63.68;98814.47;688880;28;44398;-53
2021/01/22 00:13:25;;;;;;;4.65;3.40;;;;;;;8.86;64.01;98805.97;689390;28;24436;-56
2021/01/22 00:13:46;;;;;;;3.72;3.40;;;;;;;8.86;63.72;98809.47;688599;28;46320;-51
2021/01/22 00:14:08;;;;;;;4.70;4.00;;;;;;;8.84;63.87;98798.91;689469;28;22338;-58
2021/01/22 00:14:29;;;;;;;4.97;3.80;;;;;;;8.84;63.58;98803.50;689641;28;23492;-58
2021/01/22 00:14:50;;;;;;;4.20;3.58;;;;;;;8.85;63.85;98813.19;688905;28;44434;-61
2021/01/22 00:15:12;;;;;;;3.85;3.55;;;;;;;8.85;63.63;98813.19;689433;28;22422;-52
2021/01/22 00:15:33;;;;;;;4.00;3.63;;;;;;;8.86;63.58;98805.97;688846;28;47438;-55
2021/01/22 00:15:55;;;;;;;3.85;3.55;;;;;;;8.86;63.91;98803.28;689234;28;21228;-60
2021/01/22 00:16:18;;;;;;;4.28;3.63;;;;;;;8.87;63.90;98804.91;688718;28;46554;-51
2021/01/22 00:16:40;;;;;;;4.57;3.53;;;;;;;8.87;63.48;98799.53;688807;28;46425;-53
2021/01/22 00:17:01;;;;;;;3.80;3.50;;;;;;;8.86;63.43;98796.03;688850;28;45363;-57
2021/01/22 00:17:23;;;;;;;3.92;3.53;;;;;;;8.86;63.65;98800.59;688728;28;41608;-53
2021/01/22 00:17:44;;;;;;;3.58;3.28;;;;;;;8.85;63.21;98788.97;689474;28;22522;-54
2021/01/22 00:18:05;;;;;;;3.85;3.45;;;;;;;8.83;63.54;98794.56;688788;28;44378;-52
2021/01/22 00:18:27;;;;;;;4.40;4.00;;;;;;;8.83;63.35;98793.75;689354;28;21317;-54
2021/01/22 00:18:48;;;;;;;4.20;3.80;;;;;;;8.85;63.61;98791.66;690266;28;7026;-51
2021/01/22 00:19:09;;;;;;;4.03;3.63;;;;;;;8.86;63.37;98795.19;688825;28;44385;-54
2021/01/22 00:19:31;;;;;;;4.20;3.80;;;;;;;8.86;63.73;98782.56;689310;28;22288;-61
2021/01/22 00:19:52;;;;;;;4.20;3.60;;;;;;;8.86;63.42;98787.13;689339;28;22447;-55
2021/01/22 00:20:14;;;;;;;4.07;3.67;;;;;;;8.84;63.33;98780.06;689308;28;23495;-57
2021/01/22 00:20:35;;;;;;;4.07;3.60;;;;;;;8.84;63.22;98781.94;687400;28;69406;-57
2021/01/22 00:20:57;;;;;;;4.20;3.80;;;;;;;8.85;63.29;98794.34;689758;28;20537;-56
2021/01/22 00:21:18;;;;;;;3.80;3.50;;;;;;;8.85;63.49;98791.66;689072;28;21584;-52
2021/01/22 00:21:40;;;;;;;4.43;3.63;;;;;;;8.84;63.21;98787.34;690051;28;901;-53
2021/01/22 00:22:01;;;;;;;4.40;3.53;;;;;;;8.85;63.24;98794.34;689018;28;36486;-55
2021/01/22 00:22:23;;;;;;;3.55;3.25;;;;;;;8.85;63.41;98778.19;690199;28;956;-60
2021/01/22 00:22:45;;;;;;;3.75;3.45;;;;;;;8.83;63.17;98785.66;690535;28;882;-56
2021/01/22 00:23:10;;;;;;;3.92;3.53;;;;;;;8.83;63.20;98778.41;689214;28;38416;-53
2021/01/22 00:23:32;;;;;;;3.90;3.60;;;;;;;8.82;62.92;98782.16;688664;28;30108;-54
2021/01/22 00:23:53;;;;;;;3.90;3.35;;;;;;;8.82;63.01;98771.41;689455;28;22418;-60
2021/01/22 00:24:14;;;;;;;5.50;3.60;;;;;;;8.85;63.28;98783.59;689990;28;16053;-53
2021/01/22 00:24:36;;;;;;;5.40;3.67;;;;;;;8.85;63.16;98775.50;689595;28;22200;-57
2021/01/22 00:24:57;;;;;;;5.80;3.70;;;;;;;8.86;63.27;98776.34;688891;28;45249;-60
2021/01/22 00:25:18;;;;;;;6.03;3.90;;;;;;;8.88;63.47;98774.28;689505;28;22428;-53
2021/01/22 00:25:39;;;;;;;4.45;3.70;;;;;;;8.86;63.20;98771.78;688876;28;45968;-54
2021/01/22 00:26:01;;;;;;;3.85;3.45;;;;;;;8.85;62.96;98772.81;689829;28;3313;-56
2021/01/22 00:26:23;;;;;;;4.70;3.60;;;;;;;8.84;63.17;98773.88;688160;28;46467;-52
2021/01/22 00:26:44;;;;;;;5.57;3.50;;;;;;;8.83;62.89;98770.34;689640;28;1175;-57
2021/01/22 00:27:05;;;;;;;5.15;3.45;;;;;;;8.83;63.00;98769.53;690353;28;1005;-59
2021/01/22 00:27:27;;;;;;;4.03;3.63;;;;;;;8.81;63.31;98769.75;689707;28;992;-55
2021/01/22 00:27:49;;;;;;;4.95;3.88;;;;;;;8.81;62.94;98760.84;688892;28;46320;-52
2021/01/22 00:28:10;;;;;;;5.05;3.97;;;;;;;8.80;62.87;98765.38;690056;28;1364;-55
2021/01/22 00:28:32;;;;;;;4.20;3.78;;;;;;;8.81;63.04;98771.63;687705;28;65649;-53
2021/01/22 00:28:53;;;;;;;4.47;3.90;;;;;;;8.79;63.16;98774.53;689304;28;22399;-59
2021/01/22 00:29:15;;;;;;;3.92;3.45;;;;;;;8.82;63.13;98768.72;689724;28;23428;-55
2021/01/22 00:29:36;;;;;;;3.75;3.40;;;;;;;8.83;63.48;98756.88;688901;28;40072;-53
2021/01/22 00:29:57;;;;;;;3.80;3.50;;;;;;;8.84;63.37;98779.25;688804;28;22202;-57
2021/01/22 00:30:19;;;;;;;3.88;3.47;;;;;;;8.86;63.07;98758.31;688899;28;46276;-52
2021/01/22 00:30:40;;;;;;;4.00;3.60;;;;;;;8.88;62.97;98755.41;689344;28;23408;-52
2021/01/22 00:31:02;;;;;;;4.72;3.50;;;;;;;8.86;62.95;98762.91;689299;28;23387;-60
2021/01/22 00:31:24;;;;;;;3.70;3.40;;;;;;;8.84;62.83;98765.81;688136;28;44376;-59
2021/01/22 00:31:45;;;;;;;3.78;3.47;;;;;;;8.84;63.14;98753.16;688313;28;46632;-58
2021/01/22 00:32:06;;;;;;;3.90;3.60;;;;;;;8.84;63.08;98752.34;689594;28;23495;-56
2021/01/22 00:32:27;;;;;;;3.58;3.28;;;;;;;8.83;62.86;98754.19;688827;28;44458;-55
2021/01/22 00:32:49;;;;;;;4.55;3.60;;;;;;;8.84;62.75;98750.47;690279;28;23150;-52
2021/01/22 00:33:10;;;;;;;4.30;3.70;;;;;;;8.83;62.93;98756.06;689039;28;46383;-53
2021/01/22 00:33:32;;;;;;;3.70;3.40;;;;;;;8.82;63.01;98757.94;689497;28;20191;-57
2021/01/22 00:33:53;;;;;;;3.97;3.42;;;;;;;8.82;63.15;98752.56;689780;28;22411;-56
2021/01/22 00:34:15;;;;;;;4.13;3.45;;;;;;;8.82;62.99;98755.25;689915;28;21595;-56
2021/01/22 00:34:36;;;;;;;4.30;3.30;;;;;;;8.84;63.01;98763.09;689306;28;43721;-55
2021/01/22 00:34:57;;;;;;;3.75;3.33;;;;;;;8.81;62.87;98750.91;690143;28;22366;-58
2021/01/22 00:35:18;;;;;;;3.72;3.42;;;;;;;8.84;62.96;98765.81;690020;28;23471;-53
2021/01/22 00:35:40;;;;;;;3.75;3.45;;;;;;;8.86;62.87;98746.75;689298;28;46273;-55
2021/01/22 00:36:01;;;;;;;3.70;3.40;;;;;;;8.84;63.07;98745.09;690147;28;24381;-52
2021/01/22 00:36:23;;;;;;;3.72;3.33;;;;;;;8.84;63.11;98755.03;689323;28;44407;-55
2021/01/22 00:36:44;;;;;;;3.70;3.38;;;;;;;8.87;62.96;98753.75;690005;28;22430;-58
2021/01/22 00:37:05;;;;;;;3.50;3.20;;;;;;;8.86;62.97;98752.13;689916;28;22422;-58
2021/01/22 00:37:27;;;;;;;3.60;3.28;;;;;;;8.86;62.79;98758.31;690411;28;12680;-54
2021/01/22 00:37:48;;;;;;;3.50;3.20;;;;;;;8.86;63.00;98760.22;689366;28;46282;-56
2021/01/22 00:38:09;;;;;;;4.38;3.50;;;;;;;8.86;62.49;98752.94;689909;28;23474;-54
2021/01/22 00:38:31;;;;;;;4.68;3.60;;;;;;;8.90;63.05;98754.16;688466;28;44446;-57
2021/01/22 00:38:52;;;;;;;4.50;3.70;;;;;;;8.95;62.85;98753.50;689371;28;20388;-59
2021/01/22 00:39:14;;;;;;;4.15;3.58;;;;;;;8.96;62.87;98744.41;689142;28;45336;-55
2021/01/22 00:39:35;;;;;;;3.50;3.20;;;;;;;8.94;62.88;98733.84;689829;28;23473;-54
2021/01/22 00:39:56;;;;;;;3.85;3.45;;;;;;;8.94;62.92;98749.19;689521;28;22532;-53
2021/01/22 00:40:18;;;;;;;3.83;3.47;;;;;;;8.94;62.97;98739.22;690309;28;19864;-56
2021/01/22 00:40:42;;;;;;;3.85;3.55;;;;;;;8.94;62.83;98752.69;688876;28;38168;-57
2021/01/22 00:41:03;;;;;;;3.58;3.28;;;;;;;8.95;62.88;98748.97;690149;28;22394;-55
2021/01/22 00:41:24;;;;;;;4.05;3.63;;;;;;;8.95;62.62;98753.50;690085;28;23484;-55
2021/01/22 00:41:46;;;;;;;4.20;3.65;;;;;;;8.95;62.72;98757.03;689467;28;24469;-57
2021/01/22 00:42:07;;;;;;;3.47;3.17;;;;;;;8.97;62.59;98743.38;689678;28;36321;-56
2021/01/22 00:42:29;;;;;;;3.97;3.55;;;;;;;8.95;62.79;98748.97;688849;28;45396;-56
2021/01/22 00:42:50;;;;;;;3.83;3.42;;;;;;;8.96;62.58;98747.09;686179;28;19830;-56
2021/01/22 00:43:12;;;;;;;3.85;3.55;;;;;;;8.97;62.72;98748.75;687088;28;18754;-57
2021/01/22 00:43:33;;;;;;;3.75;3.45;;;;;;;8.96;62.85;98747.09;683953;28;44709;-55
2021/01/22 00:43:54;;;;;;;4.00;3.55;;;;;;;8.97;62.61;98746.06;684537;28;23419;-52
2021/01/22 00:44:16;;;;;;;3.78;3.47;;;;;;;8.95;62.51;98740.88;685277;28;950;-58
2021/01/22 00:44:37;;;;;;;3.70;3.40;;;;;;;8.95;62.71;98743.59;684629;28;23419;-55
2021/01/22 00:44:59;;;;;;;3.95;3.65;;;;;;;8.97;62.64;98738.78;686128;28;21542;-58
2021/01/22 00:45:20;;;;;;;3.85;3.38;;;;;;;8.96;62.37;98737.13;685823;28;46311;-55
2021/01/22 00:45:41;;;;;;;3.80;3.35;;;;;;;8.94;62.65;98733.03;684157;28;22374;-58
2021/01/22 00:46:03;;;;;;;4.15;3.50;;;;;;;8.94;62.53;98736.53;683482;28;46342;-56
2021/01/22 00:46:26;;;;;;;3.83;3.30;;;;;;;8.93;62.42;98732.19;685892;28;23407;-59
2021/01/22 00:46:47;;;;;;;3.65;3.35;;;;;;;8.93;62.29;98731.38;683832;28;69413;-54
2021/01/22 00:47:08;;;;;;;3.67;3.38;;;;;;;8.93;62.49;98736.75;685801;28;23349;-56
2021/01/22 00:47:29;;;;;;;3.65;3.35;;;;;;;8.93;62.67;98736.75;686730;28;24517;-58
2021/01/22 00:47:51;;;;;;;3.63;3.33;;;;;;;8.96;62.70;98733.63;686367;28;21725;-56
2021/01/22 00:48:12;;;;;;;3.35;3.10;;;;;;;8.97;62.75;98727.22;685703;28;46409;-56
2021/01/22 00:48:35;;;;;;;3.70;3.40;;;;;;;8.95;62.84;98724.72;686252;28;12112;-58
2021/01/22 00:48:57;;;;;;;3.92;3.50;;;;;;;8.94;62.63;98728.47;682644;28;34917;-58
2021/01/22 00:49:19;;;;;;;4.20;3.83;;;;;;;8.93;62.76;98748.34;683798;28;1491;-55
2021/01/22 00:49:43;;;;;;;4.18;3.22;;;;;;;8.97;62.65;98728.03;684940;28;1281;-51
2021/01/22 00:50:05;;;;;;;4.50;3.05;;;;;;;8.97;62.61;98716.44;683732;28;45695;-56
2021/01/22 00:50:26;;;;;;;4.22;3.60;;;;;;;8.97;62.79;98738.78;683253;28;46322;-59
2021/01/22 00:50:48;;;;;;;4.22;3.28;;;;;;;9.01;62.75;98721.19;684837;28;23476;-54
2021/01/22 00:51:09;;;;;;;3.83;3.20;;;;;;;9.01;62.52;98725.72;686270;28;46420;-59
2021/01/22 00:51:31;;;;;;;3.58;3.28;;;;;;;8.99;62.63;98717.84;686772;28;46432;-55
2021/01/22 00:51:52;;;;;;;3.75;3.45;;;;;;;8.97;62.34;98719.13;689204;28;1364;-58
2021/01/22 00:52:14;;;;;;;3.85;3.53;;;;;;;8.95;62.69;98727.44;688550;28;22058;-54
2021/01/22 00:52:35;;;;;;;4.25;3.40;;;;;;;8.95;62.34;98737.34;686845;28;46405;-52
2021/01/22 00:52:58;;;;;;;3.67;3.38;;;;;;;8.96;62.68;98723.66;684119;28;68339;-55
2021/01/22 00:53:20;;;;;;;3.60;3.22;;;;;;;9.00;62.56;98724.09;685949;28;15182;-57
2021/01/22 00:53:41;;;;;;;4.20;3.60;;;;;;;9.00;62.70;98724.09;684693;28;44365;-53
2021/01/22 00:54:03;;;;;;;3.33;3.03;;;;;;;9.00;62.82;98721.41;680630;29;45315;-52
2021/01/22 00:54:34;;;;;;;3.58;3.17;;;;;;;8.99;62.69;98727.81;676093;29;137956;-56
2021/01/22 00:55:16;;;;;;;3.08;2.88;;;;;;;8.97;62.66;98717.25;678691;28;137577;-55
2021/01/22 00:55:42;;;;;;;2.90;2.70;;;;;;;9.01;62.42;98718.50;680004;28;119109;-55
2021/01/22 00:56:26;;;;;;;3.50;3.20;;;;;;;9.01;62.85;98723.03;681712;28;137475;-56
2021/01/22 00:56:53;;;;;;;3.20;2.97;;;;;;;8.99;62.52;98708.97;682695;28;157387;-53
2021/01/22 00:57:14;;;;;;;3.22;2.97;;;;;;;8.99;62.38;98717.03;685963;28;39921;-55
2021/01/22 00:57:36;;;;;;;3.67;3.30;;;;;;;8.98;62.83;98704.59;685341;28;46505;-54
2021/01/22 00:57:58;;;;;;;3.15;2.90;;;;;;;8.97;62.55;98711.88;683697;28;45372;-56
2021/01/22 00:58:26;;;;;;;3.30;3.00;;;;;;;8.98;62.96;98710.00;679600;28;136302;-59
2021/01/22 00:59:00;;;;;;;3.33;3.03;;;;;;;8.99;62.63;98711.66;680004;28;137472;-57
2021/01/22 00:59:25;;;;;;;3.28;3.05;;;;;;;8.97;62.57;98705.66;678271;29;115112;-51
2021/01/22 00:59:47;;;;;;;3.40;3.10;;;;;;;8.96;62.61;98707.50;681735;29;23710;-59
2021/01/22 01:00:10;;;;;;;4.25;3.10;;;;;;;8.96;62.73;98709.41;680863;29;47257;-51
2021/01/22 01:00:40;;;;;;;3.17;2.80;;;;;;;8.98;62.80;98704.59;678055;28;138605;-54
2021/01/22 01:01:18;;;;;;;3.30;3.00;;;;;;;8.97;62.88;98711.88;679531;28;130578;-58
2021/01/22 01:01:41;;;;;;;3.20;2.90;;;;;;;8.96;63.03;98704.81;684488;28;23517;-54
2021/01/22 01:02:02;;;;;;;3.40;3.10;;;;;;;8.97;63.06;98711.06;682770;28;64653;-59
2021/01/22 01:02:24;;;;;;;3.47;3.17;;;;;;;8.97;63.03;98711.88;683201;28;46443;-57
2021/01/22 01:02:45;;;;;;;3.40;3.10;;;;;;;8.99;62.74;98707.09;684489;28;22404;-53
2021/01/22 01:03:07;;;;;;;3.00;2.70;;;;;;;9.04;63.11;98705.63;684920;28;23525;-56
2021/01/22 01:03:28;;;;;;;2.92;2.72;;;;;;;9.04;62.95;98698.34;686371;28;46384;-58
2021/01/22 01:03:50;;;;;;;2.90;2.70;;;;;;;9.05;62.82;98702.72;684673;28;27705;-51
2021/01/22 01:04:11;;;;;;;2.90;2.70;;;;;;;9.04;63.16;98711.81;686707;28;17378;-53
2021/01/22 01:04:50;;;;;;;2.75;2.55;;;;;;;9.04;62.80;98711.81;682553;28;127510;-55
2021/01/22 01:05:12;;;;;;;2.63;2.42;;;;;;;9.02;63.07;98709.34;685733;28;42065;-53
2021/01/22 01:05:33;;;;;;;3.05;2.75;;;;;;;9.04;62.97;98705.63;686230;28;21675;-52
2021/01/22 01:05:54;;;;;;;2.90;2.70;;;;;;;9.04;62.76;98711.81;687209;28;22487;-58
2021/01/22 01:06:16;;;;;;;3.10;2.80;;;;;;;9.05;63.14;98699.22;683732;28;43715;-52
2021/01/22 01:06:45;;;;;;;2.50;2.30;;;;;;;9.07;63.23;98710.56;681696;28;136089;-51
2021/01/22 01:07:08;;;;;;;2.70;2.50;;;;;;;9.12;62.91;98708.06;682133;28;69079;-57
2021/01/22 01:07:30;;;;;;;2.55;2.35;;;;;;;9.12;62.84;98708.06;683327;28;46381;-57
2021/01/22 01:07:52;;;;;;;2.50;2.30;;;;;;;9.12;62.87;98708.06;684507;28;23276;-51
2021/01/22 01:08:22;;;;;;;2.72;2.53;;;;;;;9.12;63.02;98710.75;679116;28;160940;-54
2021/01/22 01:08:59;;;;;;;2.47;2.28;;;;;;;9.13;63.13;98710.53;680033;28;108061;-55
2021/01/22 01:09:40;;;;;;;2.47;2.30;;;;;;;9.13;63.15;98720.47;680477;28;137693;-54
2021/01/22 01:10:20;;;;;;;2.20;2.10;;;;;;;9.17;63.03;98710.94;682319;28;136682;-53
2021/01/22 01:11:02;;;;;;;2.63;2.42;;;;;;;9.18;62.75;98707.19;686106;28;137619;-56
2021/01/22 01:11:43;;;;;;;2.72;2.47;;;;;;;9.17;63.12;98706.38;683036;28;133030;-56
2021/01/22 01:12:13;;;;;;;2.53;2.33;;;;;;;9.17;62.81;98709.06;685641;28;61238;-58
2021/01/22 01:12:54;;;;;;;2.40;2.20;;;;;;;9.17;63.12;98705.56;679692;28;136102;-57
2021/01/22 01:13:34;;;;;;;2.33;2.10;;;;;;;9.18;63.01;98702.63;681499;28;138389;-57
2021/01/22 01:14:14;;;;;;;2.28;2.08;;;;;;;9.27;63.00;98715.84;682389;28;161117;-53
2021/01/22 01:14:35;;;;;;;2.30;2.10;;;;;;;9.27;62.90;98711.25;683189;28;45326;-54
2021/01/22 01:14:57;;;;;;;2.30;2.10;;;;;;;9.26;62.71;98704.22;686028;28;21558;-56
2021/01/22 01:15:28;;;;;;;2.10;2.00;;;;;;;9.27;62.87;98708.56;679941;28;137437;-56
2021/01/22 01:15:50;;;;;;;2.30;2.20;;;;;;;9.25;62.73;98702.59;684579;28;23413;-56
2021/01/22 01:16:11;;;;;;;2.10;2.00;;;;;;;9.24;62.79;98695.53;685202;28;6671;-55
2021/01/22 01:16:33;;;;;;;2.03;1.92;;;;;;;9.23;63.07;98707.34;685903;28;22427;-57
2021/01/22 01:16:55;;;;;;;2.10;1.90;;;;;;;9.25;62.92;98707.13;683910;28;46417;-56
2021/01/22 01:17:16;;;;;;;2.20;2.00;;;;;;;9.24;63.04;98700.09;684303;28;46345;-54
2021/01/22 01:17:37;;;;;;;2.25;2.05;;;;;;;9.26;63.13;98716.88;686939;28;22458;-56
2021/01/22 01:17:59;;;;;;;2.35;2.20;;;;;;;9.27;63.19;98699.66;687934;28;18157;-54
2021/01/22 01:18:21;;;;;;;2.30;2.10;;;;;;;9.29;63.00;98708.34;688956;28;31211;-55
2021/01/22 01:18:42;;;;;;;2.05;1.95;;;;;;;9.31;62.93;98709.78;689298;28;24278;-52
2021/01/22 01:19:03;;;;;;;2.10;2.00;;;;;;;9.31;62.67;98700.88;688956;28;45246;-60
2021/01/22 01:19:25;;;;;;;2.17;1.90;;;;;;;9.32;62.77;98707.91;690134;28;21563;-54
2021/01/22 01:19:46;;;;;;;1.95;1.85;;;;;;;9.30;62.68;98693.84;689161;28;45251;-51
2021/01/22 01:20:10;;;;;;;2.70;2.20;;;;;;;9.29;62.89;98708.34;690046;28;22329;-55
2021/01/22 01:20:31;;;;;;;2.15;2.00;;;;;;;9.29;62.97;98711.03;688261;28;69438;-54
2021/01/22 01:20:53;;;;;;;2.00;1.90;;;;;;;9.28;63.18;98704.00;688751;28;45301;-53
2021/01/22 01:21:14;;;;;;;2.03;1.90;;;;;;;9.30;63.21;98702.75;690794;28;1014;-52
2021/01/22 01:21:36;;;;;;;2.10;2.00;;;;;;;9.32;62.94;98699.84;689967;28;22396;-55
2021/01/22 01:21:57;;;;;;;1.85;1.75;;;;;;;9.30;62.94;98702.75;688492;28;46572;-54
2021/01/22 01:22:18;;;;;;;2.10;1.90;;;;;;;9.30;62.85;98700.06;689862;28;22400;-55
2021/01/22 01:22:39;;;;;;;2.47;2.10;;;;;;;9.30;62.94;98707.31;690062;28;23448;-57
2021/01/22 01:23:01;;;;;;;2.10;2.00;;;;;;;9.28;62.98;98698.59;690043;28;22423;-57
2021/01/22 01:23:22;;;;;;;2.10;2.00;;;;;;;9.28;63.20;98695.91;689975;28;23540;-55
2021/01/22 01:23:44;;;;;;;2.00;1.90;;;;;;;9.26;62.98;98698.81;689217;28;46313;-56
2021/01/22 01:24:05;;;;;;;1.88;1.77;;;;;;;9.27;63.11;98691.59;689982;28;23389;-52
2021/01/22 01:24:27;;;;;;;1.83;1.73;;;;;;;9.30;63.27;98696.53;688981;28;44370;-54
2021/01/22 01:24:48;;;;;;;2.15;2.05;;;;;;;9.31;63.05;98696.31;689735;28;24606;-56
2021/01/22 01:25:11;;;;;;;2.08;1.98;;;;;;;9.32;63.01;98695.25;688821;28;46345;-54
2021/01/22 01:25:32;;;;;;;2.00;1.80;;;;;;;9.34;63.36;98698.59;688394;28;68497;-55
2021/01/22 01:25:53;;;;;;;1.73;1.60;;;;;;;9.34;63.21;98689.66;689186;28;17468;-61
2021/01/22 01:26:15;;;;;;;1.70;1.60;;;;;;;9.32;63.27;98697.94;689890;28;18008;-54
2021/01/22 01:26:36;;;;;;;1.80;1.70;;;;;;;9.32;63.16;98697.94;690631;28;874;-54
2021/01/22 01:26:58;;;;;;;2.00;1.70;;;;;;;9.32;63.17;98697.13;690799;28;1002;-57
2021/01/22 01:27:20;;;;;;;1.70;1.60;;;;;;;9.34;62.99;98716.59;690760;28;882;-58
2021/01/22 01:27:41;;;;;;;1.70;1.60;;;;;;;9.39;63.15;98708.69;688596;28;43167;-58
2021/01/22 01:28:03;;;;;;;1.70;1.60;;;;;;;9.40;62.85;98699.56;689204;28;22825;-52
2021/01/22 01:28:24;;;;;;;1.65;1.55;;;;;;;9.42;62.72;98700.19;689229;28;23554;-53
2021/01/22 01:28:45;;;;;;;1.80;1.70;;;;;;;9.42;62.92;98702.88;689339;28;38130;-56
2021/01/22 01:29:07;;;;;;;1.73;1.63;;;;;;;9.42;63.09;98686.72;689796;28;21107;-57
2021/01/22 01:29:28;;;;;;;1.80;1.70;;;;;;;9.42;63.33;98681.31;690098;28;18734;-54
2021/01/22 01:29:49;;;;;;;1.80;1.70;;;;;;;9.42;62.92;98683.16;689658;28;35556;-55
2021/01/22 01:30:11;;;;;;;1.75;1.60;;;;;;;9.42;62.95;98702.03;689991;28;22408;-50
2021/01/22 01:30:34;;;;;;;1.60;1.50;;;;;;;9.46;62.85;98692.47;689018;28;38116;-51
2021/01/22 01:30:55;;;;;;;1.52;1.42;;;;;;;9.49;63.13;98692.84;687840;28;69392;-56
2021/01/22 01:31:16;;;;;;;1.50;1.40;;;;;;;9.51;62.88;98693.47;689968;28;22405;-55
2021/01/22 01:31:38;;;;;;;1.52;1.50;;;;;;;9.51;62.69;98696.16;690085;28;22348;-60
2021/01/22 01:32:00;;;;;;;1.50;1.40;;;;;;;9.52;62.67;98689.72;689944;28;23451;-53
2021/01/22 01:32:21;;;;;;;1.63;1.52;;;;;;;9.53;62.89;98694.06;687322;28;69478;-59
2021/01/22 01:32:43;;;;;;;1.40;1.40;;;;;;;9.54;62.85;98692.19;689698;28;21401;-57
2021/01/22 01:33:04;;;;;;;1.35;1.35;;;;;;;9.56;62.78;98700.88;689894;28;21544;-57
2021/01/22 01:33:25;;;;;;;1.58;1.40;;;;;;;9.59;62.72;98692.34;689093;28;46317;-54
2021/01/22 01:33:47;;;;;;;1.50;1.40;;;;;;;9.63;62.49;98698.13;689830;28;23478;-53
2021/01/22 01:34:08;;;;;;;1.40;1.30;;;;;;;9.67;62.80;98696.63;688823;28;39226;-55
2021/01/22 01:34:29;;;;;;;1.52;1.42;;;;;;;9.70;62.52;98712.38;689557;28;22486;-60
2021/01/22 01:34:51;;;;;;;1.30;1.30;;;;;;;9.71;62.41;98685.19;689423;28;23579;-55
2021/01/22 01:35:12;;;;;;;1.30;1.30;;;;;;;9.70;62.28;98682.72;689224;28;23422;-55
2021/01/22 01:35:34;;;;;;;1.20;1.20;;;;;;;9.69;62.63;98686.47;688793;28;46407;-61
2021/01/22 01:35:55;;;;;;;1.45;1.20;;;;;;;9.65;62.41;98686.06;688728;28;46339;-51
2021/01/22 01:36:17;;;;;;;1.58;1.10;;;;;;;9.69;62.33;98697.25;689971;28;18700;-58
2021/01/22 01:36:38;;;;;;;1.20;1.20;;;;;;;9.67;62.47;98686.69;689923;28;21550;-57
2021/01/22 01:37:00;;;;;;;1.30;1.20;;;;;;;9.69;62.47;98705.34;689153;28;46360;-54
2021/01/22 01:37:21;;;;;;;1.35;1.35;;;;;;;9.72;62.30;98691.44;689616;28;24371;-55
2021/01/22 01:37:42;;;;;;;1.23;1.23;;;;;;;9.73;62.44;98685.81;688919;28;45247;-56
2021/01/22 01:38:03;;;;;;;1.10;1.10;;;;;;;9.76;62.45;98684.53;689980;28;15455;-53
2021/01/22 01:38:25;;;;;;;1.00;1.00;;;;;;;9.73;62.48;98672.34;689139;28;23285;-53
2021/01/22 01:38:46;;;;;;;1.17;1.17;;;;;;;9.76;62.31;98687.22;689935;28;26527;-54
2021/01/22 01:39:08;;;;;;;1.10;1.10;;;;;;;9.77;62.25;98685.38;690200;28;18229;-52
2021/01/22 01:39:29;;;;;;;1.42;1.20;;;;;;;9.76;62.20;98668.34;689871;28;23448;-52
2021/01/22 01:39:50;;;;;;;1.52;1.15;;;;;;;9.77;62.40;98680.78;689987;28;22426;-55
2021/01/22 01:40:12;;;;;;;0.90;0.90;;;;;;;9.78;62.43;98673.53;688906;28;46083;-59
2021/01/22 01:40:33;;;;;;;1.00;1.00;;;;;;;9.74;62.20;98673.97;688753;28;46377;-53
2021/01/22 01:40:55;;;;;;;1.00;1.00;;;;;;;9.74;62.31;98670.44;689768;28;23439;-55
2021/01/22 01:41:16;;;;;;;1.10;1.10;;;;;;;9.74;62.28;98671.25;690003;28;23428;-58
2021/01/22 01:41:38;;;;;;;1.20;1.20;;;;;;;9.76;62.43;98671.03;689131;28;46503;-53
2021/01/22 01:41:59;;;;;;;1.08;1.08;;;;;;;9.76;62.49;98664.84;689173;28;45235;-56
2021/01/22 01:42:20;;;;;;;1.08;1.08;;;;;;;9.73;62.52;98669.63;689253;28;22393;-56
2021/01/22 01:42:42;;;;;;;1.13;1.13;;;;;;;9.75;62.38;98674.81;689579;28;22473;-51
2021/01/22 01:43:03;;;;;;;1.10;1.10;;;;;;;9.77;62.49;98677.28;688913;28;44408;-52
2021/01/22 01:43:24;;;;;;;1.33;1.23;;;;;;;9.79;62.36;98680.56;689616;28;22438;-56
2021/01/22 01:43:46;;;;;;;1.50;1.40;;;;;;;9.82;62.18;98699.00;689670;28;22280;-53
2021/01/22 01:44:08;;;;;;;1.10;1.10;;;;;;;9.84;62.03;98673.47;689583;28;21255;-58
2021/01/22 01:44:29;;;;;;;1.00;1.00;;;;;;;9.85;62.32;98679.69;688654;28;46361;-55
2021/01/22 01:44:50;;;;;;;1.05;1.00;;;;;;;9.86;62.18;98671.38;689965;28;23468;-62
2021/01/22 01:45:12;;;;;;;1.00;1.00;;;;;;;9.87;62.37;98678.44;688943;28;45262;-54
2021/01/22 01:45:36;;;;;;;1.48;1.10;;;;;;;9.88;62.14;98700.81;688867;28;46341;-54
2021/01/22 01:45:58;;;;;;;1.15;1.15;;;;;;;9.90;62.01;98687.91;687591;28;92276;-53
2021/01/22 01:46:19;;;;;;;1.30;1.20;;;;;;;9.90;62.18;98653.69;689803;28;21542;-57
2021/01/22 01:46:41;;;;;;;1.10;1.10;;;;;;;9.91;62.41;98655.34;689064;28;46531;-53
2021/01/22 01:47:03;;;;;;;1.20;1.10;;;;;;;9.92;62.08;98672.34;690010;28;21542;-59
2021/01/22 01:47:24;;;;;;;0.95;0.95;;;;;;;9.92;61.94;98669.63;688840;28;46442;-59
2021/01/22 01:47:45;;;;;;;0.93;0.93;;;;;;;9.92;62.21;98656.16;688962;28;45476;-55
2021/01/22 01:48:08;;;;;;;0.98;0.98;;;;;;;9.90;61.88;98647.47;689604;28;23463;-57
2021/01/22 01:48:29;;;;;;;1.00;1.00;;;;;;;9.89;62.02;98683.56;687912;28;69455;-55
2021/01/22 01:48:51;;;;;;;0.80;0.80;;;;;;;9.92;62.13;98650.75;690135;28;997;-54
2021/01/22 01:49:12;;;;;;;0.90;0.90;;;;;;;9.93;62.00;98682.09;688162;28;44752;-57